Europa — PDZS — position and weather

sailwx.info

Track history (hours):
 
Tides and Currents Weather Stations Pressure Air Temp Water Temp Dewpoint Dewpoint Depression Visibility Wind Speed Wind Dir Waves Ship Positions

Europa (Netherlands)

60 meter steel-hulled bark; cruises worldwide. Rounded Cape Horn 2002. Accepts paying voyage crew (trainees) for short or long trip segments, including an annual voyage to Antarctica and nearby islands. For bookings see http://www.barkeuropa.com/ or phone +31 (0)10 281 0990, fax +31 (0)10 281 0991.

Ship's website: http://www.barkeuropa.com/

Last reported at 2019-Jun-16 14:30 UTC. Time now 2019-Jun-16 14:36 UTC.
Position N 49°31' E 000°46'.

Length 56 m; beam 8 m.

Type: Sailing vessel. MMSI: 246198000.

Date/timePositionNaut miles runAvg speedWind from/ knotsBaromVisibWave heightAir tempDewpointWater temp
2019-Jun-16 14:30N 49°31' E 000°46'4 8.3
2019-Jun-16 14:00N 49°28' E 000°49'4 8.2
2019-Jun-16 13:30N 49°24' E 000°50'3 5.6
2019-Jun-16 13:00N 49°26' E 000°52'3 5.4
2019-Jun-16 12:30N 49°29' E 000°53'2 4.7
2019-Jun-16 12:00N 49°28' E 000°56'3 6.3
2019-Jun-16 11:30N 49°25' E 000°56'3 6.1
2019-Jun-16 11:00N 49°22' E 000°55'3 5.0
2019-Jun-16 10:30N 49°21' E 000°59'2 4.7
2019-Jun-16 10:00N 49°24' E 001°01'2 4.0
2019-Jun-16 09:29N 49°26' E 001°01'1 2.9
2019-Jun-16 09:00N 49°26' E 001°03'0 0.0
2019-Jun-16 08:30N 49°26' E 001°03'0 0.0
2019-Jun-16 08:00N 49°26' E 001°03'0 0.0
2019-Jun-16 07:30N 49°26' E 001°03'0 0.0
2019-Jun-16 07:00N 49°26' E 001°03'0 0.0
2019-Jun-16 06:30N 49°26' E 001°03'0 0.0
2019-Jun-16 06:00N 49°26' E 001°03'0 0.0
2019-Jun-16 05:30N 49°26' E 001°03'0 0.0
2019-Jun-16 05:00N 49°26' E 001°03'0 0.0
2019-Jun-16 04:30N 49°26' E 001°03'0 0.0
2019-Jun-16 04:00N 49°26' E 001°03'0 0.0
2019-Jun-16 03:30N 49°26' E 001°03'0 0.0
2019-Jun-16 03:00N 49°26' E 001°03'0 0.0
2019-Jun-16 02:30N 49°26' E 001°03'0 0.0
2019-Jun-16 02:00N 49°26' E 001°03'0 0.0
2019-Jun-16 01:30N 49°26' E 001°03'0 0.0
2019-Jun-16 00:59N 49°26' E 001°03'0 0.0
2019-Jun-16 00:30N 49°26' E 001°03'0 0.0
2019-Jun-16 00:00N 49°26' E 001°03'0 0.0
2019-Jun-15 23:30N 49°26' E 001°03'0 0.0
2019-Jun-15 23:00N 49°26' E 001°03'0 0.0
2019-Jun-15 22:30N 49°26' E 001°03'0 0.0
2019-Jun-15 22:01N 49°26' E 001°03'0 0.0
2019-Jun-15 21:30N 49°26' E 001°03'0 0.0
2019-Jun-15 21:00N 49°26' E 001°03'0 0.0
2019-Jun-15 20:30N 49°26' E 001°03'0 0.0
2019-Jun-15 20:00N 49°26' E 001°03'0 0.0
2019-Jun-15 19:30N 49°26' E 001°03'0 0.0
2019-Jun-15 19:00N 49°26' E 001°03'0 0.0
2019-Jun-15 18:30N 49°26' E 001°03'0 0.0
2019-Jun-15 18:00N 49°26' E 001°03'0 0.0
2019-Jun-15 17:30N 49°26' E 001°03'0 0.0
2019-Jun-15 17:00N 49°26' E 001°03'0 0.0
2019-Jun-15 16:30N 49°26' E 001°03'0 0.0
2019-Jun-15 16:00N 49°26' E 001°03'0 0.0
2019-Jun-15 15:30N 49°26' E 001°03'0 0.0
2019-Jun-15 15:00N 49°26' E 001°03'0 0.0
2019-Jun-15 14:30N 49°26' E 001°03'0 0.0
2019-Jun-15 14:00N 49°26' E 001°03'0 0.0
2019-Jun-15 13:30N 49°26' E 001°03'0 0.0
2019-Jun-15 13:00N 49°26' E 001°03'0 0.0
2019-Jun-15 12:30N 49°26' E 001°03'0 0.0
2019-Jun-15 12:00N 49°26' E 001°03'0 0.0
2019-Jun-15 11:30N 49°26' E 001°03'0 0.0
2019-Jun-15 11:00N 49°26' E 001°03'0 0.0
2019-Jun-15 10:30N 49°26' E 001°03'0 0.0
2019-Jun-15 10:00N 49°26' E 001°03'0 0.0
2019-Jun-15 09:30N 49°26' E 001°03'0 0.0
2019-Jun-15 09:00N 49°26' E 001°03'0 0.0
2019-Jun-15 08:30N 49°26' E 001°03'0 0.0
2019-Jun-15 08:00N 49°26' E 001°03'0 0.0
2019-Jun-15 07:30N 49°26' E 001°03'0 0.0
2019-Jun-15 07:00N 49°26' E 001°03'0 0.0
2019-Jun-15 06:30N 49°26' E 001°03'0 0.0
2019-Jun-15 06:00N 49°26' E 001°03'0 0.0
2019-Jun-15 05:30N 49°26' E 001°03'0 0.0
2019-Jun-15 05:00N 49°26' E 001°03'0 0.0
2019-Jun-15 04:30N 49°26' E 001°03'0 0.0
2019-Jun-15 04:00N 49°26' E 001°03'0 0.0
2019-Jun-15 03:30N 49°26' E 001°03'0 0.0
2019-Jun-15 03:00N 49°26' E 001°03'0 0.0
2019-Jun-15 02:31N 49°26' E 001°03'0 0.0
2019-Jun-15 02:00N 49°26' E 001°03'0 0.0
2019-Jun-15 01:30N 49°26' E 001°03'0 0.0
2019-Jun-15 01:01N 49°26' E 001°03'0 0.0
2019-Jun-15 00:30N 49°26' E 001°03'0 0.0
2019-Jun-15 00:00N 49°26' E 001°03'0 0.0
2019-Jun-14 23:30N 49°26' E 001°03'0 0.0
2019-Jun-14 23:00N 49°26' E 001°03'0 0.0
2019-Jun-14 22:30N 49°26' E 001°03'0 0.0
2019-Jun-14 22:00N 49°26' E 001°03'0 0.0
2019-Jun-14 21:30N 49°26' E 001°03'0 0.0
2019-Jun-14 20:59N 49°26' E 001°03'0 0.0
2019-Jun-14 20:30N 49°26' E 001°03'0 0.0
2019-Jun-14 20:00N 49°26' E 001°03'0 0.0
2019-Jun-14 19:31N 49°26' E 001°03'0 0.0
2019-Jun-14 19:00N 49°26' E 001°03'0 0.0
2019-Jun-14 18:30N 49°26' E 001°03'0 0.0
2019-Jun-14 18:01N 49°26' E 001°03'0 0.0
2019-Jun-14 17:30N 49°26' E 001°03'0 0.0
2019-Jun-14 17:00N 49°26' E 001°03'0 0.0
2019-Jun-14 16:30N 49°26' E 001°03'0 0.0
2019-Jun-14 15:59N 49°26' E 001°03'0 0.0
2019-Jun-14 15:30N 49°26' E 001°03'0 0.0
2019-Jun-14 15:00N 49°26' E 001°03'0 0.0
2019-Jun-14 14:30N 49°26' E 001°03'0 0.0
2019-Jun-14 14:00N 49°26' E 001°03'0 0.0
2019-Jun-14 13:31N 49°26' E 001°03'0 0.0
2019-Jun-14 13:00N 49°26' E 001°03'0 0.0
2019-Jun-14 12:30N 49°26' E 001°03'0 0.0
2019-Jun-14 12:00N 49°26' E 001°03'0 0.0
2019-Jun-14 11:31N 49°26' E 001°03'0 0.0
2019-Jun-14 11:00N 49°26' E 001°03'0 0.0
2019-Jun-14 10:30N 49°26' E 001°03'0 0.0
2019-Jun-14 10:00N 49°26' E 001°03'0 0.0
2019-Jun-14 09:30N 49°26' E 001°03'0 0.0
2019-Jun-14 09:00N 49°26' E 001°03'0 0.0
2019-Jun-14 08:30N 49°26' E 001°03'0 0.0
2019-Jun-14 08:00N 49°26' E 001°03'0 0.0
2019-Jun-14 07:30N 49°26' E 001°03'0 0.0
2019-Jun-14 07:00N 49°26' E 001°03'0 0.0
2019-Jun-14 06:30N 49°26' E 001°03'0 0.0
2019-Jun-14 06:00N 49°26' E 001°03'0 0.0
2019-Jun-14 05:30N 49°26' E 001°03'0 0.0
2019-Jun-14 05:00N 49°26' E 001°03'0 0.0
2019-Jun-14 04:30N 49°26' E 001°03'0 0.0
2019-Jun-14 04:00N 49°26' E 001°03'0 0.0
2019-Jun-14 03:30N 49°26' E 001°03'0 0.0
2019-Jun-14 03:01N 49°26' E 001°03'0 0.0
2019-Jun-14 02:30N 49°26' E 001°03'0 0.0
2019-Jun-14 02:00N 49°26' E 001°03'0 0.0
2019-Jun-14 01:30N 49°26' E 001°03'0 0.0
2019-Jun-14 01:00N 49°26' E 001°03'0 0.0
2019-Jun-14 00:30N 49°26' E 001°03'0 0.0
2019-Jun-14 00:00N 49°26' E 001°03'0 0.0
2019-Jun-13 23:30N 49°26' E 001°03'0 0.0
2019-Jun-13 23:00N 49°26' E 001°03'0 0.0
2019-Jun-13 22:30N 49°26' E 001°03'0 0.0
2019-Jun-13 22:00N 49°26' E 001°03'0 0.0
2019-Jun-13 21:30N 49°26' E 001°03'0 0.0
2019-Jun-13 21:01N 49°26' E 001°03'0 0.0
2019-Jun-13 20:30N 49°26' E 001°03'0 0.0
2019-Jun-13 20:00N 49°26' E 001°03'0 0.0
2019-Jun-13 19:30N 49°26' E 001°03'0 0.0
2019-Jun-13 19:00N 49°26' E 001°03'0 0.0
2019-Jun-13 18:30N 49°26' E 001°03'0 0.0
2019-Jun-13 18:00N 49°26' E 001°03'0 0.0
2019-Jun-13 17:30N 49°26' E 001°03'0 0.0
2019-Jun-13 17:00N 49°26' E 001°03'0 0.0
2019-Jun-13 16:30N 49°26' E 001°03'0 0.0
2019-Jun-13 16:00N 49°26' E 001°03'0 0.0
2019-Jun-13 15:30N 49°26' E 001°03'0 0.0
2019-Jun-13 15:01N 49°26' E 001°03'0 0.0
2019-Jun-13 14:30N 49°26' E 001°03'0 0.0
2019-Jun-13 14:00N 49°26' E 001°03'0 0.0
2019-Jun-13 13:30N 49°26' E 001°03'0 0.0
2019-Jun-13 13:00N 49°26' E 001°03'0 0.0
2019-Jun-13 12:30N 49°26' E 001°03'0 0.0
2019-Jun-13 12:00N 49°26' E 001°03'1 2.4
2019-Jun-13 11:30N 49°26' E 001°02'3 5.0
2019-Jun-13 11:00N 49°23' E 001°01'3 6.6
2019-Jun-13 10:30N 49°21' E 000°57'3 6.2
2019-Jun-13 10:00N 49°24' E 000°55'4 7.5
2019-Jun-13 09:30N 49°28' E 000°56'3 5.8
2019-Jun-13 09:00N 49°28' E 000°52'4 8.6
2019-Jun-13 08:31N 49°24' E 000°51'4 7.0
2019-Jun-13 08:00N 49°27' E 000°49'4 7.6
2019-Jun-13 07:30N 49°30' E 000°46'4 7.7
2019-Jun-13 07:00N 49°30' E 000°40'5 9.5
2019-Jun-13 06:30N 49°26' E 000°38'4 8.2
2019-Jun-13 06:01N 49°28' E 000°32'4 7.5
2019-Jun-13 05:30N 49°28' E 000°26'5 9.8
2019-Jun-13 05:00N 49°26' E 000°19'5 9.4
2019-Jun-13 04:30N 49°26' E 000°12'4 8.8
2019-Jun-13 04:00N 49°26' E 000°05'4 8.0
2019-Jun-13 03:30N 49°28' W 000°00'3 5.3
2019-Jun-13 03:00N 49°27' W 000°04'2 4.2
2019-Jun-13 02:30N 49°25' W 000°06'1 1.6
2019-Jun-13 01:57N 49°24' W 000°06'0 0.0
2019-Jun-13 01:30N 49°24' W 000°06'0 0.0
2019-Jun-13 00:58N 49°24' W 000°06'0 0.0
2019-Jun-13 00:25N 49°24' W 000°06'0 0.0
2019-Jun-12 23:57N 49°24' W 000°06'0 0.0
2019-Jun-12 23:28N 49°24' W 000°06'0 0.0
2019-Jun-12 22:58N 49°24' W 000°06'0 0.0
2019-Jun-12 22:29N 49°24' W 000°06'0 0.0
2019-Jun-12 21:59N 49°24' W 000°06'0 0.0
2019-Jun-12 21:28N 49°24' W 000°06'0 0.0
2019-Jun-12 20:58N 49°24' W 000°06'0 0.0
2019-Jun-12 20:27N 49°24' W 000°06'0 0.1
2019-Jun-12 19:53N 49°24' W 000°06'0 0.0
2019-Jun-12 19:29N 49°24' W 000°06'0 0.0
2019-Jun-12 18:54N 49°24' W 000°06'0 0.0
2019-Jun-12 18:30N 49°24' W 000°06'0 0.0
2019-Jun-12 18:00N 49°24' W 000°06'0 0.0
2019-Jun-12 17:30N 49°24' W 000°06'0 0.0
2019-Jun-12 16:58N 49°24' W 000°06'0 0.0
2019-Jun-12 16:30N 49°24' W 000°06'0 0.0
2019-Jun-12 16:00N 49°24' W 000°06'0 0.1
2019-Jun-12 15:28N 49°24' W 000°06'0 0.0
2019-Jun-12 14:56N 49°24' W 000°06'1 1.7
2019-Jun-12 14:31N 49°25' W 000°07'3 6.3
2019-Jun-12 14:01N 49°27' W 000°11'3 6.1
2019-Jun-12 13:31N 49°29' W 000°15'3 5.3
2019-Jun-12 13:01N 49°31' W 000°17'2 3.3
2019-Jun-12 12:30N 49°32' W 000°19'0 0.6
2019-Jun-12 12:00N 49°32' W 000°19'1 2.5
2019-Jun-12 11:30N 49°33' W 000°20'2 3.0
2019-Jun-12 11:01N 49°34' W 000°21'1 2.8
2019-Jun-12 10:30N 49°36' W 000°22'2 3.3
2019-Jun-12 10:00N 49°37' W 000°23'2 3.2
2019-Jun-12 09:30N 49°39' W 000°24'1 1.9
2019-Jun-12 09:00N 49°39' W 000°23'1 1.9
2019-Jun-12 08:30N 49°39' W 000°21'1 1.7
2019-Jun-12 08:00N 49°39' W 000°20'1 1.5
2019-Jun-12 07:30N 49°40' W 000°19'1 1.6
2019-Jun-12 07:00N 49°40' W 000°18'1 1.6
2019-Jun-12 06:30N 49°41' W 000°17'1 1.6
2019-Jun-12 06:00N 49°42' W 000°17'1 1.8
2019-Jun-12 05:30N 49°43' W 000°17'2 3.7
2019-Jun-12 05:00N 49°44' W 000°18'4 7.9
2019-Jun-12 04:30N 49°48' W 000°22'3 6.8
2019-Jun-12 04:00N 49°50' W 000°25'3 6.4
2019-Jun-12 03:30N 49°53' W 000°28'37 3.9
2019-Jun-11 18:00N 50°24' W 001°00'2 4.4 330 / 61010.710.8 14.810.014.9
2019-Jun-11 17:29N 50°26' W 001°02'0 0.6
2019-Jun-11 16:52N 50°26' W 001°02'1 1.8
2019-Jun-11 16:30N 50°27' W 001°02'2 3.2
2019-Jun-11 15:58N 50°29' W 001°02'3 3.0
2019-Jun-11 14:49N 50°32' W 001°03'3 2.5
2019-Jun-11 13:48N 50°34' W 001°05'1 3.2
2019-Jun-11 13:29N 50°35' W 001°06'1 2.7
2019-Jun-11 13:00N 50°36' W 001°06'0 0.0
2019-Jun-11 12:10N 50°36' W 001°06'0 0.0
2019-Jun-11 12:00N 50°36' W 001°06'0 0.0
2019-Jun-11 07:57N 50°36' W 001°06'0 0.0
2019-Jun-11 07:30N 50°36' W 001°06'0 0.0
2019-Jun-11 07:00N 50°36' W 001°06'0 0.0
2019-Jun-11 06:19N 50°36' W 001°06'0 1.4
2019-Jun-11 06:00N 50°36' W 001°06'042.2 130 / 111012.810.8 12.8 9.914.6
2019-Jun-11 05:59N 50°36' W 001°06'0 0.0
2019-Jun-11 05:25N 50°36' W 001°06'0 0.1
2019-Jun-11 04:48N 50°36' W 001°06'0 0.0
2019-Jun-11 04:21N 50°36' W 001°06'0 0.0
2019-Jun-11 03:51N 50°36' W 001°06'0 0.0
2019-Jun-11 03:26N 50°36' W 001°06'0 0.1
2019-Jun-11 02:58N 50°36' W 001°06'0 0.0
2019-Jun-11 02:04N 50°36' W 001°06'0 0.0
2019-Jun-11 01:52N 50°36' W 001°06'1 2.1
2019-Jun-11 01:29N 50°36' W 001°07'2 4.1
2019-Jun-11 01:00N 50°34' W 001°09'2 4.7
2019-Jun-11 00:30N 50°33' W 001°13'27 5.8
2019-Jun-10 19:51N 50°25' W 001°52'5 4.7
2019-Jun-10 18:42N 50°25' W 002°01'1 4.1
2019-Jun-10 18:30N 50°25' W 002°02'9 5.7
2019-Jun-10 17:00N 50°23' W 002°15'3 5.5
2019-Jun-10 16:30N 50°22' W 002°19'4 4.0
2019-Jun-10 15:24N 50°22' W 002°26'1 2.0
2019-Jun-10 15:00N 50°23' W 002°27'3 2.8
2019-Jun-10 14:04N 50°23' W 002°31'0 5.7
2019-Jun-10 14:00N 50°23' W 002°32'1 2.9
2019-Jun-10 13:30N 50°24' W 002°34'2 3.3
2019-Jun-10 13:00N 50°23' W 002°36'1 2.7
2019-Jun-10 12:30N 50°23' W 002°39'2 2.6
2019-Jun-10 11:42N 50°23' W 002°42'1 2.9
2019-Jun-10 11:30N 50°22' W 002°43'2 3.5
2019-Jun-10 11:00N 50°22' W 002°45'2 4.0
2019-Jun-10 10:30N 50°22' W 002°48'2 3.6
2019-Jun-10 10:00N 50°22' W 002°51'2 3.3
2019-Jun-10 09:30N 50°21' W 002°54'2 3.3
2019-Jun-10 09:00N 50°21' W 002°56'2 3.2
2019-Jun-10 08:31N 50°20' W 002°58'2 3.7
2019-Jun-10 08:00N 50°20' W 003°01'2 3.3
2019-Jun-10 07:31N 50°19' W 003°04'1 2.8
2019-Jun-10 07:01N 50°19' W 003°06'2 3.4
2019-Jun-10 06:31N 50°19' W 003°08'2 3.1
2019-Jun-10 06:00N 50°19' W 003°11'3223.0
2019-Jun-10 06:00N 50°18' W 003°06'4 8.8 010 / 81016.610.8 12.5 9.613.5
2019-Jun-10 05:30N 50°19' W 003°13'1 2.8
2019-Jun-10 05:01N 50°19' W 003°15'2 4.1
2019-Jun-10 04:31N 50°18' W 003°18'2 4.3
2019-Jun-10 04:01N 50°18' W 003°21'2 3.7
2019-Jun-10 03:31N 50°17' W 003°24'1 2.0
2019-Jun-10 03:01N 50°17' W 003°25'1 2.3
2019-Jun-10 02:30N 50°16' W 003°27'1 2.0
2019-Jun-10 02:01N 50°16' W 003°28'1 2.2
2019-Jun-10 01:31N 50°15' W 003°30'1 1.6
2019-Jun-10 01:01N 50°15' W 003°31'1 1.2
2019-Jun-10 00:30N 50°15' W 003°32'1 1.2
2019-Jun-10 00:01N 50°14' W 003°32'3161.0
2019-Jun-10 00:00N 50°12' W 003°30'3 5.4 240 / 11014.310.8 13.1 9.313.3
2019-Jun-09 23:31N 50°14' W 003°33'1 2.5
2019-Jun-09 23:01N 50°13' W 003°35'1 2.1
2019-Jun-09 22:31N 50°12' W 003°36'1 2.2
2019-Jun-09 22:00N 50°11' W 003°37'1 2.7
2019-Jun-09 21:30N 50°11' W 003°39'1 2.0
2019-Jun-09 21:00N 50°10' W 003°40'1 1.9
2019-Jun-09 20:31N 50°10' W 003°42'1 1.8
2019-Jun-09 20:00N 50°09' W 003°43'1 1.4
2019-Jun-09 19:31N 50°09' W 003°44'0 0.6
2019-Jun-09 19:00N 50°09' W 003°44'0 0.3
2019-Jun-09 18:31N 50°09' W 003°45'0 0.6
2019-Jun-09 18:00N 50°09' W 003°45'4264.9
2019-Jun-09 18:00N 50°06' W 003°42'4 8.1 260 / 51019.510.8 14.510.114.4
2019-Jun-09 17:31N 50°09' W 003°45'0 0.2
2019-Jun-09 17:00N 50°09' W 003°46'0 0.4
2019-Jun-09 16:30N 50°09' W 003°46'0 0.6
2019-Jun-09 16:00N 50°09' W 003°46'0 0.8
2019-Jun-09 15:30N 50°09' W 003°47'1 1.8
2019-Jun-09 15:00N 50°09' W 003°48'1 1.8
2019-Jun-09 14:31N 50°09' W 003°50'1 1.9
2019-Jun-09 14:01N 50°09' W 003°51'1 2.0
2019-Jun-09 13:31N 50°09' W 003°53'2 3.1
2019-Jun-09 12:58N 50°10' W 003°55'2 3.7
2019-Jun-09 12:24N 50°10' W 003°59'2 4.4
2019-Jun-09 12:01N 50°11' W 004°01'2 3.8
2019-Jun-09 11:23N 50°11' W 004°05'1 2.5
2019-Jun-09 11:00N 50°11' W 004°06'1 2.4
2019-Jun-09 10:29N 50°11' W 004°08'49 3.0
2019-Jun-08 18:00N 49°36' W 005°00'39 6.6 260 / 141019.510.8 14.9 9.913.8
2019-Jun-08 12:00N 49°12' W 005°48'40 6.6 270 / 171018.710.8 16.810.014.5
2019-Jun-08 06:00N 48°54' W 006°42'45 7.5 280 / 201015.410.8 14.5 7.614.0
2019-Jun-08 00:00N 48°42' W 007°48'47 7.9 290 / 211013.910.8 13.2 9.614.2
2019-Jun-07 18:00N 48°24' W 008°54'55 9.2 280 / 211011.010.8 14.2 6.214.6
2019-Jun-07 12:00N 48°06' W 010°12'   300 / 201009.310.8 15.0 9.714.5
Track history (hours):
 
Tides and Currents Weather Stations Pressure Air Temp Water Temp Dewpoint Dewpoint Depression Visibility Wind Speed Wind Dir Waves Ship Positions

Europa (Netherlands)

60 meter steel-hulled bark; cruises worldwide. Rounded Cape Horn 2002. Accepts paying voyage crew (trainees) for short or long trip segments, including an annual voyage to Antarctica and nearby islands. For bookings see http://www.barkeuropa.com/ or phone +31 (0)10 281 0990, fax +31 (0)10 281 0991.

Ship's website: http://www.barkeuropa.com/

Last reported at 2019-Jun-16 14:30 UTC. Time now 2019-Jun-16 14:36 UTC.
Position N 49°31' E 000°46'.

Length 56 m; beam 8 m.

Type: Sailing vessel. MMSI: 246198000.

Date/timePositionNaut miles runAvg speedWind from/ knotsBaromVisibWave heightAir tempDewpointWater temp
2019-Jun-16 14:30N 49°31' E 000°46'4 8.3
2019-Jun-16 14:00N 49°28' E 000°49'4 8.2
2019-Jun-16 13:30N 49°24' E 000°50'3 5.6
2019-Jun-16 13:00N 49°26' E 000°52'3 5.4
2019-Jun-16 12:30N 49°29' E 000°53'2 4.7
2019-Jun-16 12:00N 49°28' E 000°56'3 6.3
2019-Jun-16 11:30N 49°25' E 000°56'3 6.1
2019-Jun-16 11:00N 49°22' E 000°55'3 5.0
2019-Jun-16 10:30N 49°21' E 000°59'2 4.7
2019-Jun-16 10:00N 49°24' E 001°01'2 4.0
2019-Jun-16 09:29N 49°26' E 001°01'1 2.9
2019-Jun-16 09:00N 49°26' E 001°03'0 0.0
2019-Jun-16 08:30N 49°26' E 001°03'0 0.0
2019-Jun-16 08:00N 49°26' E 001°03'0 0.0
2019-Jun-16 07:30N 49°26' E 001°03'0 0.0
2019-Jun-16 07:00N 49°26' E 001°03'0 0.0
2019-Jun-16 06:30N 49°26' E 001°03'0 0.0
2019-Jun-16 06:00N 49°26' E 001°03'0 0.0
2019-Jun-16 05:30N 49°26' E 001°03'0 0.0
2019-Jun-16 05:00N 49°26' E 001°03'0 0.0
2019-Jun-16 04:30N 49°26' E 001°03'0 0.0
2019-Jun-16 04:00N 49°26' E 001°03'0 0.0
2019-Jun-16 03:30N 49°26' E 001°03'0 0.0
2019-Jun-16 03:00N 49°26' E 001°03'0 0.0
2019-Jun-16 02:30N 49°26' E 001°03'0 0.0
2019-Jun-16 02:00N 49°26' E 001°03'0 0.0
2019-Jun-16 01:30N 49°26' E 001°03'0 0.0
2019-Jun-16 00:59N 49°26' E 001°03'0 0.0
2019-Jun-16 00:30N 49°26' E 001°03'0 0.0
2019-Jun-16 00:00N 49°26' E 001°03'0 0.0
2019-Jun-15 23:30N 49°26' E 001°03'0 0.0
2019-Jun-15 23:00N 49°26' E 001°03'0 0.0
2019-Jun-15 22:30N 49°26' E 001°03'0 0.0
2019-Jun-15 22:01N 49°26' E 001°03'0 0.0
2019-Jun-15 21:30N 49°26' E 001°03'0 0.0
2019-Jun-15 21:00N 49°26' E 001°03'0 0.0
2019-Jun-15 20:30N 49°26' E 001°03'0 0.0
2019-Jun-15 20:00N 49°26' E 001°03'0 0.0
2019-Jun-15 19:30N 49°26' E 001°03'0 0.0
2019-Jun-15 19:00N 49°26' E 001°03'0 0.0
2019-Jun-15 18:30N 49°26' E 001°03'0 0.0
2019-Jun-15 18:00N 49°26' E 001°03'0 0.0
2019-Jun-15 17:30N 49°26' E 001°03'0 0.0
2019-Jun-15 17:00N 49°26' E 001°03'0 0.0
2019-Jun-15 16:30N 49°26' E 001°03'0 0.0
2019-Jun-15 16:00N 49°26' E 001°03'0 0.0
2019-Jun-15 15:30N 49°26' E 001°03'0 0.0
2019-Jun-15 15:00N 49°26' E 001°03'0 0.0
2019-Jun-15 14:30N 49°26' E 001°03'0 0.0
2019-Jun-15 14:00N 49°26' E 001°03'0 0.0
2019-Jun-15 13:30N 49°26' E 001°03'0 0.0
2019-Jun-15 13:00N 49°26' E 001°03'0 0.0
2019-Jun-15 12:30N 49°26' E 001°03'0 0.0
2019-Jun-15 12:00N 49°26' E 001°03'0 0.0
2019-Jun-15 11:30N 49°26' E 001°03'0 0.0
2019-Jun-15 11:00N 49°26' E 001°03'0 0.0
2019-Jun-15 10:30N 49°26' E 001°03'0 0.0
2019-Jun-15 10:00N 49°26' E 001°03'0 0.0
2019-Jun-15 09:30N 49°26' E 001°03'0 0.0
2019-Jun-15 09:00N 49°26' E 001°03'0 0.0
2019-Jun-15 08:30N 49°26' E 001°03'0 0.0
2019-Jun-15 08:00N 49°26' E 001°03'0 0.0
2019-Jun-15 07:30N 49°26' E 001°03'0 0.0
2019-Jun-15 07:00N 49°26' E 001°03'0 0.0
2019-Jun-15 06:30N 49°26' E 001°03'0 0.0
2019-Jun-15 06:00N 49°26' E 001°03'0 0.0
2019-Jun-15 05:30N 49°26' E 001°03'0 0.0
2019-Jun-15 05:00N 49°26' E 001°03'0 0.0
2019-Jun-15 04:30N 49°26' E 001°03'0 0.0
2019-Jun-15 04:00N 49°26' E 001°03'0 0.0
2019-Jun-15 03:30N 49°26' E 001°03'0 0.0
2019-Jun-15 03:00N 49°26' E 001°03'0 0.0
2019-Jun-15 02:31N 49°26' E 001°03'0 0.0
2019-Jun-15 02:00N 49°26' E 001°03'0 0.0
2019-Jun-15 01:30N 49°26' E 001°03'0 0.0
2019-Jun-15 01:01N 49°26' E 001°03'0 0.0
2019-Jun-15 00:30N 49°26' E 001°03'0 0.0
2019-Jun-15 00:00N 49°26' E 001°03'0 0.0
2019-Jun-14 23:30N 49°26' E 001°03'0 0.0
2019-Jun-14 23:00N 49°26' E 001°03'0 0.0
2019-Jun-14 22:30N 49°26' E 001°03'0 0.0
2019-Jun-14 22:00N 49°26' E 001°03'0 0.0
2019-Jun-14 21:30N 49°26' E 001°03'0 0.0
2019-Jun-14 20:59N 49°26' E 001°03'0 0.0
2019-Jun-14 20:30N 49°26' E 001°03'0 0.0
2019-Jun-14 20:00N 49°26' E 001°03'0 0.0
2019-Jun-14 19:31N 49°26' E 001°03'0 0.0
2019-Jun-14 19:00N 49°26' E 001°03'0 0.0
2019-Jun-14 18:30N 49°26' E 001°03'0 0.0
2019-Jun-14 18:01N 49°26' E 001°03'0 0.0
2019-Jun-14 17:30N 49°26' E 001°03'0 0.0
2019-Jun-14 17:00N 49°26' E 001°03'0 0.0
2019-Jun-14 16:30N 49°26' E 001°03'0 0.0
2019-Jun-14 15:59N 49°26' E 001°03'0 0.0
2019-Jun-14 15:30N 49°26' E 001°03'0 0.0
2019-Jun-14 15:00N 49°26' E 001°03'0 0.0
2019-Jun-14 14:30N 49°26' E 001°03'0 0.0
2019-Jun-14 14:00N 49°26' E 001°03'0 0.0
2019-Jun-14 13:31N 49°26' E 001°03'0 0.0
2019-Jun-14 13:00N 49°26' E 001°03'0 0.0
2019-Jun-14 12:30N 49°26' E 001°03'0 0.0
2019-Jun-14 12:00N 49°26' E 001°03'0 0.0
2019-Jun-14 11:31N 49°26' E 001°03'0 0.0
2019-Jun-14 11:00N 49°26' E 001°03'0 0.0
2019-Jun-14 10:30N 49°26' E 001°03'0 0.0
2019-Jun-14 10:00N 49°26' E 001°03'0 0.0
2019-Jun-14 09:30N 49°26' E 001°03'0 0.0
2019-Jun-14 09:00N 49°26' E 001°03'0 0.0
2019-Jun-14 08:30N 49°26' E 001°03'0 0.0
2019-Jun-14 08:00N 49°26' E 001°03'0 0.0
2019-Jun-14 07:30N 49°26' E 001°03'0 0.0
2019-Jun-14 07:00N 49°26' E 001°03'0 0.0
2019-Jun-14 06:30N 49°26' E 001°03'0 0.0
2019-Jun-14 06:00N 49°26' E 001°03'0 0.0
2019-Jun-14 05:30N 49°26' E 001°03'0 0.0
2019-Jun-14 05:00N 49°26' E 001°03'0 0.0
2019-Jun-14 04:30N 49°26' E 001°03'0 0.0
2019-Jun-14 04:00N 49°26' E 001°03'0 0.0
2019-Jun-14 03:30N 49°26' E 001°03'0 0.0
2019-Jun-14 03:01N 49°26' E 001°03'0 0.0
2019-Jun-14 02:30N 49°26' E 001°03'0 0.0
2019-Jun-14 02:00N 49°26' E 001°03'0 0.0
2019-Jun-14 01:30N 49°26' E 001°03'0 0.0
2019-Jun-14 01:00N 49°26' E 001°03'0 0.0
2019-Jun-14 00:30N 49°26' E 001°03'0 0.0
2019-Jun-14 00:00N 49°26' E 001°03'0 0.0
2019-Jun-13 23:30N 49°26' E 001°03'0 0.0
2019-Jun-13 23:00N 49°26' E 001°03'0 0.0
2019-Jun-13 22:30N 49°26' E 001°03'0 0.0
2019-Jun-13 22:00N 49°26' E 001°03'0 0.0
2019-Jun-13 21:30N 49°26' E 001°03'0 0.0
2019-Jun-13 21:01N 49°26' E 001°03'0 0.0
2019-Jun-13 20:30N 49°26' E 001°03'0 0.0
2019-Jun-13 20:00N 49°26' E 001°03'0 0.0
2019-Jun-13 19:30N 49°26' E 001°03'0 0.0
2019-Jun-13 19:00N 49°26' E 001°03'0 0.0
2019-Jun-13 18:30N 49°26' E 001°03'0 0.0
2019-Jun-13 18:00N 49°26' E 001°03'0 0.0
2019-Jun-13 17:30N 49°26' E 001°03'0 0.0
2019-Jun-13 17:00N 49°26' E 001°03'0 0.0
2019-Jun-13 16:30N 49°26' E 001°03'0 0.0
2019-Jun-13 16:00N 49°26' E 001°03'0 0.0
2019-Jun-13 15:30N 49°26' E 001°03'0 0.0
2019-Jun-13 15:01N 49°26' E 001°03'0 0.0
2019-Jun-13 14:30N 49°26' E 001°03'0 0.0
2019-Jun-13 14:00N 49°26' E 001°03'0 0.0
2019-Jun-13 13:30N 49°26' E 001°03'0 0.0
2019-Jun-13 13:00N 49°26' E 001°03'0 0.0
2019-Jun-13 12:30N 49°26' E 001°03'0 0.0
2019-Jun-13 12:00N 49°26' E 001°03'1 2.4
2019-Jun-13 11:30N 49°26' E 001°02'3 5.0
2019-Jun-13 11:00N 49°23' E 001°01'3 6.6
2019-Jun-13 10:30N 49°21' E 000°57'3 6.2
2019-Jun-13 10:00N 49°24' E 000°55'4 7.5
2019-Jun-13 09:30N 49°28' E 000°56'3 5.8
2019-Jun-13 09:00N 49°28' E 000°52'4 8.6
2019-Jun-13 08:31N 49°24' E 000°51'4 7.0
2019-Jun-13 08:00N 49°27' E 000°49'4 7.6
2019-Jun-13 07:30N 49°30' E 000°46'4 7.7
2019-Jun-13 07:00N 49°30' E 000°40'5 9.5
2019-Jun-13 06:30N 49°26' E 000°38'4 8.2
2019-Jun-13 06:01N 49°28' E 000°32'4 7.5
2019-Jun-13 05:30N 49°28' E 000°26'5 9.8
2019-Jun-13 05:00N 49°26' E 000°19'5 9.4
2019-Jun-13 04:30N 49°26' E 000°12'4 8.8
2019-Jun-13 04:00N 49°26' E 000°05'4 8.0
2019-Jun-13 03:30N 49°28' W 000°00'3 5.3
2019-Jun-13 03:00N 49°27' W 000°04'2 4.2
2019-Jun-13 02:30N 49°25' W 000°06'1 1.6
2019-Jun-13 01:57N 49°24' W 000°06'0 0.0
2019-Jun-13 01:30N 49°24' W 000°06'0 0.0
2019-Jun-13 00:58N 49°24' W 000°06'0 0.0
2019-Jun-13 00:25N 49°24' W 000°06'0 0.0
2019-Jun-12 23:57N 49°24' W 000°06'0 0.0
2019-Jun-12 23:28N 49°24' W 000°06'0 0.0
2019-Jun-12 22:58N 49°24' W 000°06'0 0.0
2019-Jun-12 22:29N 49°24' W 000°06'0 0.0
2019-Jun-12 21:59N 49°24' W 000°06'0 0.0
2019-Jun-12 21:28N 49°24' W 000°06'0 0.0
2019-Jun-12 20:58N 49°24' W 000°06'0 0.0
2019-Jun-12 20:27N 49°24' W 000°06'0 0.1
2019-Jun-12 19:53N 49°24' W 000°06'0 0.0
2019-Jun-12 19:29N 49°24' W 000°06'0 0.0
2019-Jun-12 18:54N 49°24' W 000°06'0 0.0
2019-Jun-12 18:30N 49°24' W 000°06'0 0.0
2019-Jun-12 18:00N 49°24' W 000°06'0 0.0
2019-Jun-12 17:30N 49°24' W 000°06'0 0.0
2019-Jun-12 16:58N 49°24' W 000°06'0 0.0
2019-Jun-12 16:30N 49°24' W 000°06'0 0.0
2019-Jun-12 16:00N 49°24' W 000°06'0 0.1
2019-Jun-12 15:28N 49°24' W 000°06'0 0.0
2019-Jun-12 14:56N 49°24' W 000°06'1 1.7
2019-Jun-12 14:31N 49°25' W 000°07'3 6.3
2019-Jun-12 14:01N 49°27' W 000°11'3 6.1
2019-Jun-12 13:31N 49°29' W 000°15'3 5.3
2019-Jun-12 13:01N 49°31' W 000°17'2 3.3
2019-Jun-12 12:30N 49°32' W 000°19'0 0.6
2019-Jun-12 12:00N 49°32' W 000°19'1 2.5
2019-Jun-12 11:30N 49°33' W 000°20'2 3.0
2019-Jun-12 11:01N 49°34' W 000°21'1 2.8
2019-Jun-12 10:30N 49°36' W 000°22'2 3.3
2019-Jun-12 10:00N 49°37' W 000°23'2 3.2
2019-Jun-12 09:30N 49°39' W 000°24'1 1.9
2019-Jun-12 09:00N 49°39' W 000°23'1 1.9
2019-Jun-12 08:30N 49°39' W 000°21'1 1.7
2019-Jun-12 08:00N 49°39' W 000°20'1 1.5
2019-Jun-12 07:30N 49°40' W 000°19'1 1.6
2019-Jun-12 07:00N 49°40' W 000°18'1 1.6
2019-Jun-12 06:30N 49°41' W 000°17'1 1.6
2019-Jun-12 06:00N 49°42' W 000°17'1 1.8
2019-Jun-12 05:30N 49°43' W 000°17'2 3.7
2019-Jun-12 05:00N 49°44' W 000°18'4 7.9
2019-Jun-12 04:30N 49°48' W 000°22'3 6.8
2019-Jun-12 04:00N 49°50' W 000°25'3 6.4
2019-Jun-12 03:30N 49°53' W 000°28'37 3.9
2019-Jun-11 18:00N 50°24' W 001°00'2 4.4 330 / 61010.710.8 14.810.014.9
2019-Jun-11 17:29N 50°26' W 001°02'0 0.6
2019-Jun-11 16:52N 50°26' W 001°02'1 1.8
2019-Jun-11 16:30N 50°27' W 001°02'2 3.2
2019-Jun-11 15:58N 50°29' W 001°02'3 3.0
2019-Jun-11 14:49N 50°32' W 001°03'3 2.5
2019-Jun-11 13:48N 50°34' W 001°05'1 3.2
2019-Jun-11 13:29N 50°35' W 001°06'1 2.7
2019-Jun-11 13:00N 50°36' W 001°06'0 0.0
2019-Jun-11 12:10N 50°36' W 001°06'0 0.0
2019-Jun-11 12:00N 50°36' W 001°06'0 0.0
2019-Jun-11 07:57N 50°36' W 001°06'0 0.0
2019-Jun-11 07:30N 50°36' W 001°06'0 0.0
2019-Jun-11 07:00N 50°36' W 001°06'0 0.0
2019-Jun-11 06:19N 50°36' W 001°06'0 1.4
2019-Jun-11 06:00N 50°36' W 001°06'042.2 130 / 111012.810.8 12.8 9.914.6
2019-Jun-11 05:59N 50°36' W 001°06'0 0.0
2019-Jun-11 05:25N 50°36' W 001°06'0 0.1
2019-Jun-11 04:48N 50°36' W 001°06'0 0.0
2019-Jun-11 04:21N 50°36' W 001°06'0 0.0
2019-Jun-11 03:51N 50°36' W 001°06'0 0.0
2019-Jun-11 03:26N 50°36' W 001°06'0 0.1
2019-Jun-11 02:58N 50°36' W 001°06'0 0.0
2019-Jun-11 02:04N 50°36' W 001°06'0 0.0
2019-Jun-11 01:52N 50°36' W 001°06'1 2.1
2019-Jun-11 01:29N 50°36' W 001°07'2 4.1
2019-Jun-11 01:00N 50°34' W 001°09'2 4.7
2019-Jun-11 00:30N 50°33' W 001°13'27 5.8
2019-Jun-10 19:51N 50°25' W 001°52'5 4.7
2019-Jun-10 18:42N 50°25' W 002°01'1 4.1
2019-Jun-10 18:30N 50°25' W 002°02'9 5.7
2019-Jun-10 17:00N 50°23' W 002°15'3 5.5
2019-Jun-10 16:30N 50°22' W 002°19'4 4.0
2019-Jun-10 15:24N 50°22' W 002°26'1 2.0
2019-Jun-10 15:00N 50°23' W 002°27'3 2.8
2019-Jun-10 14:04N 50°23' W 002°31'0 5.7
2019-Jun-10 14:00N 50°23' W 002°32'1 2.9
2019-Jun-10 13:30N 50°24' W 002°34'2 3.3
2019-Jun-10 13:00N 50°23' W 002°36'1 2.7
2019-Jun-10 12:30N 50°23' W 002°39'2 2.6
2019-Jun-10 11:42N 50°23' W 002°42'1 2.9
2019-Jun-10 11:30N 50°22' W 002°43'2 3.5
2019-Jun-10 11:00N 50°22' W 002°45'2 4.0
2019-Jun-10 10:30N 50°22' W 002°48'2 3.6
2019-Jun-10 10:00N 50°22' W 002°51'2 3.3
2019-Jun-10 09:30N 50°21' W 002°54'2 3.3
2019-Jun-10 09:00N 50°21' W 002°56'2 3.2
2019-Jun-10 08:31N 50°20' W 002°58'2 3.7
2019-Jun-10 08:00N 50°20' W 003°01'2 3.3
2019-Jun-10 07:31N 50°19' W 003°04'1 2.8
2019-Jun-10 07:01N 50°19' W 003°06'2 3.4
2019-Jun-10 06:31N 50°19' W 003°08'2 3.1
2019-Jun-10 06:00N 50°19' W 003°11'3223.0
2019-Jun-10 06:00N 50°18' W 003°06'4 8.8 010 / 81016.610.8 12.5 9.613.5
2019-Jun-10 05:30N 50°19' W 003°13'1 2.8
2019-Jun-10 05:01N 50°19' W 003°15'2 4.1
2019-Jun-10 04:31N 50°18' W 003°18'2 4.3
2019-Jun-10 04:01N 50°18' W 003°21'2 3.7
2019-Jun-10 03:31N 50°17' W 003°24'1 2.0
2019-Jun-10 03:01N 50°17' W 003°25'1 2.3
2019-Jun-10 02:30N 50°16' W 003°27'1 2.0
2019-Jun-10 02:01N 50°16' W 003°28'1 2.2
2019-Jun-10 01:31N 50°15' W 003°30'1 1.6
2019-Jun-10 01:01N 50°15' W 003°31'1 1.2
2019-Jun-10 00:30N 50°15' W 003°32'1 1.2
2019-Jun-10 00:01N 50°14' W 003°32'3161.0
2019-Jun-10 00:00N 50°12' W 003°30'3 5.4 240 / 11014.310.8 13.1 9.313.3
2019-Jun-09 23:31N 50°14' W 003°33'1 2.5
2019-Jun-09 23:01N 50°13' W 003°35'1 2.1
2019-Jun-09 22:31N 50°12' W 003°36'1 2.2
2019-Jun-09 22:00N 50°11' W 003°37'1 2.7
2019-Jun-09 21:30N 50°11' W 003°39'1 2.0
2019-Jun-09 21:00N 50°10' W 003°40'1 1.9
2019-Jun-09 20:31N 50°10' W 003°42'1 1.8
2019-Jun-09 20:00N 50°09' W 003°43'1 1.4
2019-Jun-09 19:31N 50°09' W 003°44'0 0.6
2019-Jun-09 19:00N 50°09' W 003°44'0 0.3
2019-Jun-09 18:31N 50°09' W 003°45'0 0.6
2019-Jun-09 18:00N 50°09' W 003°45'4264.9
2019-Jun-09 18:00N 50°06' W 003°42'4 8.1 260 / 51019.510.8 14.510.114.4
2019-Jun-09 17:31N 50°09' W 003°45'0 0.2
2019-Jun-09 17:00N 50°09' W 003°46'0 0.4
2019-Jun-09 16:30N 50°09' W 003°46'0 0.6
2019-Jun-09 16:00N 50°09' W 003°46'0 0.8
2019-Jun-09 15:30N 50°09' W 003°47'1 1.8
2019-Jun-09 15:00N 50°09' W 003°48'1 1.8
2019-Jun-09 14:31N 50°09' W 003°50'1 1.9
2019-Jun-09 14:01N 50°09' W 003°51'1 2.0
2019-Jun-09 13:31N 50°09' W 003°53'2 3.1
2019-Jun-09 12:58N 50°10' W 003°55'2 3.7
2019-Jun-09 12:24N 50°10' W 003°59'2 4.4
2019-Jun-09 12:01N 50°11' W 004°01'2 3.8
2019-Jun-09 11:23N 50°11' W 004°05'1 2.5
2019-Jun-09 11:00N 50°11' W 004°06'1 2.4
2019-Jun-09 10:29N 50°11' W 004°08'49 3.0
2019-Jun-08 18:00N 49°36' W 005°00'39 6.6 260 / 141019.510.8 14.9 9.913.8
2019-Jun-08 12:00N 49°12' W 005°48'40 6.6 270 / 171018.710.8 16.810.014.5
2019-Jun-08 06:00N 48°54' W 006°42'45 7.5 280 / 201015.410.8 14.5 7.614.0
2019-Jun-08 00:00N 48°42' W 007°48'47 7.9 290 / 211013.910.8 13.2 9.614.2
2019-Jun-07 18:00N 48°24' W 008°54'55 9.2 280 / 211011.010.8 14.2 6.214.6
2019-Jun-07 12:00N 48°06' W 010°12'   300 / 201009.310.8 15.0 9.714.5

Dump ship's entire track history